Aeroporto :
LOGIN :

Iscrizione | Disclaimer

   EN    FR    IT 

 










Sommario :    VFR   VFR Marginale   IFR   IFR Intensivo   IFR Molto Intensivo
Visibilità : 
Base nubi : 
>= 8 km
>= 3000ft
5 / 8 km
1000 / 3000 ft
1500m / 5 km
500 / 1000 ft
800 / 1500m
200 / 500 ft
< 800m
< 200 ft
Simboli :   Temporali  Nebbia  Neve Forte  Precipitazioni Forti  Vento > 20 kt
SIGMETs :   Varie  Temporali  Ghiacco  Turbolenza  Onda orograficha  Ceneri Vulcaniche






- Altitudine del aeroporto : 681 ft
- Codice IATA : LBA


EGNM - Leeds Bradford

ULTIMO METAR :
  • 020620Z 06005KT 0400 R14/0450N -RA FG SCT001 OVC002 01/01 Q0990

METARs OBSOLETI :
  • 020550Z 05003KT 0200 R14/0450N FG SCT001 OVC002 01/01 Q0990
  • 020520Z 05003KT 010V110 0300 FG SCT001 OVC002 01/01 Q0990
  • 020450Z 04003KT 360V060 0300 FG SCT001 OVC002 01/01 Q0990
  • 012050Z 16006KT 9999 FEW039 02/00 Q0990

TAF TAF EGNM
Valido dal 02 a 06 ore il 03 a 06 ore UTC


020456Z 0206/0306 07005KT 0300 FG BKN001
BECMG 0206/0209 9999 NSW SCT015
PROB30 0206/0208 0300 FG BKN001
PROB30
TEMPO 0206/0209 6000 SHRASN BKN008
TEMPO 0209/0303 7000 -SHRA BKN012
PROB30
TEMPO 0209/0224 4000 SHRASN BKN006
ATIS : +44 113 250 9696 (x2489)



MetMap, La meteo Aeronautica in un colpo d'occhio ! - Copyright ORBIFLY Dicembre 2007 - Disclaimer

ORBIFLY MET'MAP TEAM :

Programmazione e sviluppo : Alexandra Zaïnal
Concezione : Baudouin d'Aumeries
Supporto tecnico e logistico : Manuel Goepfert
Aiuto : Marc-Olivier Méhu
Aiuto per la traduzione : Arnaldo La Scala




FONTI E CREDITI :

   NOAA